»·PEaware :: N37MC L52-L88

N37MC :: L52-L88

FLIGHT INFORMATION

Flight Status: Arrived
Operator: Privately registered:
United States
More flights under this callsign
Pilot: Michael K. (17521)
Aircraft: Unknown
(PIPA)
More flights by this aircraft type
Origin: L52 Oceano Co
United States
Destination: L88 New Cuyama
United States
More flights between these airports :: More routes between these airports
Route:
File this flight plan on PilotEdge
Remarks: CAT 1
Altitude:
(Current/Filed)
3,000ft
Speed:
(Current/Filed)
0kts
Departed: 31-Jan-19 06:35 PM
Arrived: 31-Jan-19 06:58 PM
Distance/Time
Traveled:
47nm/0:23
Distance/Time
To Go:
Arrived

Flight Plot

Page will automatically refresh every two minutes.


Map Options




Map Legend


Flown Route
Filed Route
Departure Airport
Arrival Airport
Navaid (VOR, NDB)
Fix

Horizontal Profiles

Position Reports

Time Latitude Longitude Heading Altitude Ground
Speed
31-Jan-19 18:13 35.103406 -120.624442 32 19ft 0kts
31-Jan-19 18:14 35.103406 -120.624442 32 19ft 0kts
31-Jan-19 18:15 35.103406 -120.624442 32 19ft 0kts
31-Jan-19 18:16 35.103406 -120.624442 32 19ft 0kts
31-Jan-19 18:17 35.103406 -120.624442 32 19ft 0kts
31-Jan-19 18:18 35.103406 -120.624442 32 19ft 0kts
31-Jan-19 18:19 35.103406 -120.624442 32 19ft 0kts
31-Jan-19 18:20 35.103406 -120.624442 32 19ft 0kts
31-Jan-19 18:21 35.103406 -120.624442 32 19ft 0kts
31-Jan-19 18:22 35.103406 -120.624442 32 19ft 0kts
31-Jan-19 18:23 35.103453 -120.624210 121 19ft 4kts
31-Jan-19 18:24 35.102813 -120.623726 211 19ft 0kts
31-Jan-19 18:25 35.102813 -120.623726 211 19ft 0kts
31-Jan-19 18:26 35.102529 -120.623950 216 19ft 4kts
31-Jan-19 18:27 35.101124 -120.622440 124 19ft 10kts
31-Jan-19 18:28 35.099575 -120.619479 95 19ft 0kts
31-Jan-19 18:29 35.099576 -120.619428 82 19ft 0kts
31-Jan-19 18:30 35.099625 -120.619268 34 19ft 0kts
31-Jan-19 18:31 35.099625 -120.619268 34 19ft 0kts
31-Jan-19 18:32 35.099625 -120.619268 34 19ft 0kts
31-Jan-19 18:33 35.099669 -120.619229 35 19ft 2kts
31-Jan-19 18:34 35.103512 -120.625608 308 64ft 95kts
31-Jan-19 18:35 35.119139 -120.657454 244 1506ft 126kts
31-Jan-19 18:36 35.103271 -120.631394 88 2818ft 143kts
31-Jan-19 18:37 35.100468 -120.575608 98 3149ft 190kts
31-Jan-19 18:38 35.097408 -120.509053 88 3217ft 201kts
31-Jan-19 18:39 35.090836 -120.444575 113 3455ft 199kts
31-Jan-19 18:40 35.084892 -120.380171 79 3703ft 197kts
31-Jan-19 18:41 35.098578 -120.320073 81 3284ft 208kts
31-Jan-19 18:42 35.099821 -120.241493 87 2977ft 213kts
31-Jan-19 18:43 35.102686 -120.170533 88 3088ft 202kts
31-Jan-19 18:44 35.099504 -120.100067 93 3032ft 200kts
31-Jan-19 18:45 35.095855 -120.038149 106 3231ft 187kts
31-Jan-19 18:46 35.073637 -119.981469 120 3510ft 178kts
31-Jan-19 18:47 35.048697 -119.928115 118 3773ft 184kts
31-Jan-19 18:48 35.020036 -119.876375 122 3990ft 187kts
31-Jan-19 18:49 34.995120 -119.822243 116 4320ft 184kts
31-Jan-19 18:50 34.975413 -119.766134 115 4382ft 177kts
31-Jan-19 18:51 34.951006 -119.727389 127 2953ft 95kts
31-Jan-19 18:52 34.941894 -119.698795 118 2373ft 87kts
31-Jan-19 18:53 34.926136 -119.670694 129 2906ft 97kts
31-Jan-19 18:54 34.907989 -119.646639 108 3208ft 87kts
31-Jan-19 18:55 34.925322 -119.652384 301 2952ft 89kts
31-Jan-19 18:56 34.937368 -119.679134 297 2241ft 77kts
31-Jan-19 18:57 34.941996 -119.690584 303 2165ft 5kts
31-Jan-19 18:58 34.943561 -119.691117 293 2154ft 0kts
31-Jan-19 18:59 34.943561 -119.691117 293 2154ft 0kts
31-Jan-19 19:00 34.943561 -119.691117 293 2154ft 0kts
31-Jan-19 19:01 34.943561 -119.691117 293 2154ft 0kts
31-Jan-19 19:02 34.943561 -119.691117 293 2154ft 0kts
31-Jan-19 19:03 34.943561 -119.691117 293 2154ft 0kts

Navigation Log

Ident Type
Flight plan parsing failed, navigation log unavailable